Latest Weather Observations for Darwin Harbour

IDD60801

Issued at 10:05 pm CST Wednesday 26 November 2014 (issued every 30 minutes, with the page automatically refreshed every 10 minutes)

About weather observations | Map of weather stations | Latest weather observations for NT | Other Formats
Station Details ID: 014072 Name: DARWIN NTC AWS Lat: -12.47 Lon: 130.85 Height: 0.0 m
Data from the previous 72 hours. | See also: Recent months for locations in Northern Territory
Date/Time
CST
Temp
°C
App
Temp
°C
Dew
Point
Rel
Hum
%
Delta-T
°C
Wind Press
QNH
hPa
Press
MSL
hPa
Rain
since 9 am
mm
Dir
 
Spd
km/h
Gust
km/h
Spd
kts
Gust
kts
26/10:00pm 29.6 - - - - NNW 6 9 3 5 1007.7 1007.6 -
26/09:30pm 29.8 - - - - NNW 9 17 5 9 1007.5 1007.4 -
26/09:00pm 29.6 - - - - WNW 9 17 5 9 1007.2 1007.1 -
26/08:30pm 29.5 - - - - NW 9 17 5 9 1006.8 1006.7 -
26/08:00pm 29.6 - - - - NNW 11 22 6 12 1006.2 1006.1 -
26/07:30pm 29.8 - - - - N 11 24 6 13 1005.7 1005.6 -
26/07:00pm 30.1 - - - - N 11 20 6 11 1005.0 1004.9 -
26/06:30pm 30.3 - - - - NNE 9 19 5 10 1005.0 1004.9 -
26/06:00pm 30.9 - - - - NNE 13 24 7 13 1004.8 1004.7 -
26/05:30pm 31.6 - - - - NE 11 20 6 11 1004.7 1004.6 -
26/05:00pm 31.1 - - - - SW 2 6 1 3 1004.6 1004.5 -
26/04:30pm 30.8 - - - - NNW 6 9 3 5 1004.8 1004.7 -
26/04:00pm 30.8 - - - - ENE 7 17 4 9 1004.7 1004.6 -
26/03:30pm 30.1 - - - - ENE 11 20 6 11 1004.7 1004.6 -
26/03:00pm 29.0 - - - - NNE 9 22 5 12 1005.1 1005.0 -
26/02:30pm 28.3 - - - - NE 13 28 7 15 1005.5 1005.4 -
26/02:00pm 28.8 - - - - NE 11 20 6 11 1005.9 1005.8 -
26/01:30pm 27.6 - - - - NNE 22 41 12 22 1006.6 1006.5 -
26/01:00pm 30.3 - - - - WSW 7 11 4 6 1006.0 1005.9 -
26/12:30pm 30.9 - - - - S 6 7 3 4 1006.8 1006.7 -
26/12:00pm 31.7 - - - - SE 4 11 2 6 1007.4 1007.3 -
26/11:30am 30.5 - - - - ESE 9 11 5 6 1007.7 1007.6 -
26/11:00am 30.3 - - - - E 9 15 5 8 1008.1 1008.0 -
26/10:30am 29.9 - - - - E 9 15 5 8 1008.4 1008.3 -
26/10:00am 28.9 - - - - E 11 17 6 9 1008.6 1008.5 -
26/09:30am 28.8 - - - - E 11 17 6 9 1008.6 1008.5 -
26/09:00am 28.4 - - - - E 11 17 6 9 1008.6 1008.5 -
26/08:30am 27.4 - - - - E 13 19 7 10 1008.4 1008.3 -
26/08:00am 27.1 - - - - E 15 20 8 11 1008.0 1007.9 -
26/07:30am 26.6 - - - - ENE 9 15 5 8 1007.5 1007.4 -
26/07:00am 26.4 - - - - ENE 7 13 4 7 1007.2 1007.1 -
26/06:30am 26.3 - - - - NE 7 15 4 8 1006.7 1006.6 -
26/06:00am 26.6 - - - - E 13 20 7 11 1006.4 1006.3 -
26/05:30am 26.4 - - - - E 15 22 8 12 1006.1 1006.0 -
26/05:00am 26.3 - - - - ENE 11 20 6 11 1005.8 1005.7 -
26/04:30am 26.7 - - - - ENE 9 17 5 9 1005.7 1005.6 -
26/04:00am 26.6 - - - - E 7 11 4 6 1005.7 1005.6 -
26/03:30am 26.3 - - - - E 15 20 8 11 1005.9 1005.8 -
26/03:00am 26.6 - - - - E 13 20 7 11 1006.1 1006.0 -
26/02:30am 26.9 - - - - E 19 24 10 13 1006.4 1006.3 -
26/02:00am 27.2 - - - - ESE 15 17 8 9 1006.5 1006.4 -
26/01:30am 26.9 - - - - ESE 15 20 8 11 1006.5 1006.4 -
26/01:00am 27.2 - - - - SE 13 19 7 10 1006.8 1006.7 -
26/12:30am 27.3 - - - - SSE 13 19 7 10 1007.3 1007.2 -
26/12:00am 27.4 - - - - SSE 7 11 4 6 1007.5 1007.4 -
 
Date/Time
CST
Temp
°C
App
Temp
°C
Dew
Point
Rel
Hum
%
Delta-T
°C
Wind Press
QNH
hPa
Press
MSL
hPa
Rain
since 9 am
mm
Dir
 
Spd
km/h
Gust
km/h
Spd
kts
Gust
kts
25/11:30pm 27.6 - - - - E 2 7 1 4 1007.7 1007.6 -
25/11:00pm 27.6 - - - - ESE 6 7 3 4 1007.7 1007.6 -
25/10:30pm 27.3 - - - - E 7 11 4 6 1007.6 1007.5 -
25/10:00pm 27.1 - - - - ENE 9 13 5 7 1007.6 1007.5 -
25/09:30pm 27.3 - - - - ENE 2 7 1 4 1007.1 1007.0 -
25/09:00pm 27.2 - - - - ENE 4 7 2 4 1007.1 1007.0 -
25/08:30pm 26.8 - - - - NE 2 9 1 5 1007.0 1006.9 -
25/08:00pm 26.3 - - - - NNE 9 17 5 9 1006.6 1006.5 -
25/07:30pm 26.5 - - - - NE 9 17 5 9 1006.2 1006.1 -
25/07:00pm 26.7 - - - - ENE 9 17 5 9 1005.9 1005.8 -
25/06:30pm 26.2 - - - - ENE 7 13 4 7 1005.9 1005.8 -
25/06:00pm 25.5 - - - - ENE 13 24 7 13 1005.9 1005.8 -
25/05:30pm 26.0 - - - - W 6 9 3 5 1006.3 1006.2 -
25/05:00pm 25.6 - - - - ENE 28 44 15 24 1005.8 1005.7 -
25/04:46pm 27.1 - - - - NE 11 32 6 17 1005.7 1005.6 -
25/04:30pm 32.1 - - - - NNW 11 20 6 11 1005.3 1005.2 -
25/04:00pm 31.8 - - - - NW 13 22 7 12 1005.4 1005.3 -
25/03:30pm 31.8 - - - - WNW 13 24 7 13 1005.2 1005.1 -
25/03:00pm 31.5 - - - - W 11 17 6 9 1005.8 1005.7 -
25/02:30pm 31.1 - - - - WSW 6 9 3 5 1005.7 1005.6 -
25/02:00pm 30.6 - - - - SW 9 11 5 6 1005.7 1005.6 -
25/01:30pm 30.2 - - - - SW 11 15 6 8 1006.5 1006.4 -
25/01:00pm 29.4 - - - - SW 15 19 8 10 1007.5 1007.4 -
25/12:30pm 28.9 - - - - SSW 13 15 7 8 1008.1 1008.0 -
25/12:00pm 28.9 - - - - SSW 11 17 6 9 1008.4 1008.3 -
25/11:30am 28.8 - - - - S 9 13 5 7 1008.6 1008.5 -
25/11:00am 28.9 - - - - S 2 4 1 2 1008.8 1008.7 -
25/10:30am 28.2 - - - - SSW 9 11 5 6 1009.0 1008.9 -
25/10:00am 28.5 - - - - S 7 13 4 7 1009.1 1009.0 -
25/09:30am 28.5 - - - - SSE 6 11 3 6 1009.0 1008.9 -
25/09:00am 28.3 - - - - SSE 7 13 4 7 1008.9 1008.8 -
25/08:30am 28.0 - - - - SE 7 11 4 6 1008.7 1008.6 -
25/08:00am 28.2 - - - - E 6 9 3 5 1008.4 1008.3 -
25/07:30am 27.9 - - - - E 2 6 1 3 1008.0 1007.9 -
25/07:00am 27.5 - - - - E 6 9 3 5 1007.6 1007.5 -
25/06:30am 27.5 - - - - E 6 11 3 6 1007.3 1007.2 -
25/06:00am 27.2 - - - - E 9 13 5 7 1007.2 1007.1 -
25/05:30am 27.2 - - - - ENE 7 11 4 6 1007.4 1007.3 -
25/05:00am 26.9 - - - - NE 6 13 3 7 1006.9 1006.8 -
25/04:30am 27.2 - - - - E 9 15 5 8 1007.2 1007.1 -
25/04:00am 26.9 - - - - SSE 11 15 6 8 1007.4 1007.3 -
25/03:30am 26.7 - - - - SE 17 22 9 12 1007.7 1007.6 -
25/03:00am 27.6 - - - - E 9 17 5 9 1007.4 1007.3 -
25/02:30am 27.3 - - - - ENE 7 15 4 8 1007.0 1006.9 -
25/02:00am 27.3 - - - - NE 6 13 3 7 1007.1 1007.0 -
25/01:30am 27.6 - - - - ENE 9 17 5 9 1007.3 1007.2 -
25/01:00am 28.3 - - - - ENE 7 15 4 8 1007.3 1007.2 -
25/12:30am 28.1 - - - - E 6 9 3 5 1007.5 1007.4 -
25/12:00am 28.2 - - - - W 4 7 2 4 1007.9 1007.8 -
 
Date/Time
CST
Temp
°C
App
Temp
°C
Dew
Point
Rel
Hum
%
Delta-T
°C
Wind Press
QNH
hPa
Press
MSL
hPa
Rain
since 9 am
mm
Dir
 
Spd
km/h
Gust
km/h
Spd
kts
Gust
kts
24/11:30pm 28.0 - - - - NNE 4 7 2 4 1008.3 1008.2 -
24/11:00pm 27.4 - - - - SSE 6 7 3 4 1008.7 1008.6 -
24/10:30pm 26.9 - - - - E 15 19 8 10 1009.0 1008.9 -
24/10:00pm 27.1 - - - - SE 19 24 10 13 1008.8 1008.7 -
24/09:30pm 28.0 - - - - ENE 7 15 4 8 1008.5 1008.4 -
24/09:00pm 27.8 - - - - SSW 19 20 10 11 1008.3 1008.2 -
24/08:30pm 26.2 - - - - SSW 35 41 19 22 1009.3 1009.2 -
24/08:00pm 27.1 - - - - SSE 28 37 15 20 1009.3 1009.2 -
24/07:30pm 27.7 - - - - S 28 33 15 18 1009.2 1009.1 -
24/07:00pm 27.4 - - - - S 33 39 18 21 1008.1 1008.0 -
24/06:49pm 28.3 - - - - S 39 43 21 23 1007.9 1007.8 -
24/06:30pm 31.2 - - - - WNW 17 24 9 13 1007.2 1007.1 -
24/06:00pm 31.0 - - - - WNW 17 24 9 13 1006.8 1006.7 -
24/05:30pm 30.9 - - - - WNW 19 24 10 13 1006.1 1006.0 -
24/05:00pm 31.8 - - - - NW 11 20 6 11 1005.5 1005.4 -
24/04:30pm 31.9 - - - - NW 11 19 6 10 1005.9 1005.8 -
24/04:00pm 32.0 - - - - NW 15 24 8 13 1005.5 1005.4 -
24/03:30pm 31.4 - - - - NW 15 24 8 13 1005.6 1005.5 -
24/03:00pm 31.5 - - - - WNW 17 28 9 15 1006.3 1006.2 -
24/02:30pm 31.9 - - - - NW 15 26 8 14 1006.5 1006.4 -
24/02:00pm 30.9 - - - - NW 15 28 8 15 1006.9 1006.8 -
24/01:30pm 31.8 - - - - WNW 13 20 7 11 1007.7 1007.6 -
24/01:00pm 31.2 - - - - WNW 13 19 7 10 1008.7 1008.6 -
24/12:30pm 31.0 - - - - W 11 17 6 9 1009.3 1009.2 -
24/12:00pm 30.7 - - - - W 13 17 7 9 1009.8 1009.7 -
24/11:30am 30.4 - - - - W 7 11 4 6 1010.1 1010.0 -
24/11:00am 30.8 - - - - SW 4 9 2 5 1010.3 1010.2 -
24/10:30am 30.6 - - - - SW 4 7 2 4 1010.6 1010.5 -
24/10:00am 29.6 - - - - WSW 6 7 3 4 1010.5 1010.4 -
24/09:30am 29.4 - - - - WSW 7 11 4 6 1010.7 1010.6 -
24/09:00am 29.4 - - - - SSW 6 7 3 4 1010.6 1010.5 -
24/08:30am 30.4 - - - - N 2 7 1 4 1010.5 1010.4 -
24/08:00am 29.5 - - - - ENE 6 9 3 5 1010.5 1010.4 -
24/07:30am 29.5 - - - - ENE 6 11 3 6 1010.0 1009.9 -
24/07:00am 29.1 - - - - NE 4 7 2 4 1009.9 1009.8 -
24/06:30am 28.3 - - - - NE 6 11 3 6 1009.3 1009.2 -
24/06:00am 28.2 - - - - NE 6 11 3 6 1009.0 1008.9 -
24/05:30am 28.7 - - - - NNE 4 6 2 3 1008.9 1008.8 -
24/05:00am 28.3 - - - - NNE 6 11 3 6 1008.7 1008.6 -
24/04:30am 28.7 - - - - N 6 13 3 7 1008.7 1008.6 -
24/04:00am 28.6 - - - - N 4 11 2 6 1008.6 1008.5 -
24/03:30am 28.9 - - - - N 2 7 1 4 1008.7 1008.6 -
24/03:00am 29.1 - - - - N 6 9 3 5 1008.7 1008.6 -
24/02:30am 29.2 - - - - NNE 6 9 3 5 1008.8 1008.7 -
24/02:00am 29.3 - - - - NNE 6 13 3 7 1008.8 1008.7 -
24/01:30am 29.6 - - - - N 4 9 2 5 1009.1 1009.0 -
24/01:00am 30.0 - - - - NNW 7 15 4 8 1009.3 1009.2 -
24/12:30am 30.2 - - - - NNW 4 11 2 6 1009.3 1009.2 -
24/12:00am 29.8 - - - - NW 9 17 5 9 1009.3 1009.2 -
 
Date/Time
CST
Temp
°C
App
Temp
°C
Dew
Point
Rel
Hum
%
Delta-T
°C
Wind Press
QNH
hPa
Press
MSL
hPa
Rain
since 9 am
mm
Dir
 
Spd
km/h
Gust
km/h
Spd
kts
Gust
kts
23/11:30pm 30.2 - - - - NW 7 15 4 8 1009.2 1009.1 -
23/11:00pm 30.4 - - - - NW 7 15 4 8 1009.2 1009.1 -
23/10:30pm 30.3 - - - - WNW 17 24 9 13 1009.1 1009.0 -

Other Formats:

Comma delimited format used in spreadsheet applications
http://www.bom.gov.au/fwo/IDD60801/IDD60801.95122.axf

JavaScript Object Notation format (JSON) in row-major order
http://www.bom.gov.au/fwo/IDD60801/IDD60801.95122.json